sensor_id;sensor_type;location;lat;lon;timestamp;temperature;humidity
10095;DHT22;5086;50.830;7.102;2023-06-14T00:00:39;19.30;83.30
10095;DHT22;5086;50.830;7.102;2023-06-14T00:03:20;19.20;82.90
10095;DHT22;5086;50.830;7.102;2023-06-14T00:05:47;19.20;83.40
10095;DHT22;5086;50.830;7.102;2023-06-14T00:08:17;19.10;82.90
10095;DHT22;5086;50.830;7.102;2023-06-14T00:10:46;19.20;83.10
10095;DHT22;5086;50.830;7.102;2023-06-14T00:13:18;19.20;82.50
10095;DHT22;5086;50.830;7.102;2023-06-14T00:15:46;19.20;82.10
10095;DHT22;5086;50.830;7.102;2023-06-14T00:18:36;19.00;83.30
10095;DHT22;5086;50.830;7.102;2023-06-14T00:21:06;19.10;82.50
10095;DHT22;5086;50.830;7.102;2023-06-14T00:23:32;19.10;83.30
10095;DHT22;5086;50.830;7.102;2023-06-14T00:26:00;19.10;82.70
10095;DHT22;5086;50.830;7.102;2023-06-14T00:29:00;19.00;82.80
10095;DHT22;5086;50.830;7.102;2023-06-14T00:31:29;19.00;82.50
10095;DHT22;5086;50.830;7.102;2023-06-14T00:33:57;19.00;83.10
10095;DHT22;5086;50.830;7.102;2023-06-14T00:36:23;18.80;83.20
10095;DHT22;5086;50.830;7.102;2023-06-14T00:38:50;18.70;83.00
10095;DHT22;5086;50.830;7.102;2023-06-14T00:41:18;18.60;84.00
10095;DHT22;5086;50.830;7.102;2023-06-14T00:46:58;18.40;85.50
10095;DHT22;5086;50.830;7.102;2023-06-14T00:49:25;18.20;90.90
10095;DHT22;5086;50.830;7.102;2023-06-14T00:51:53;18.10;91.50
10095;DHT22;5086;50.830;7.102;2023-06-14T00:54:21;18.10;92.60
10095;DHT22;5086;50.830;7.102;2023-06-14T00:56:54;18.10;92.50
10095;DHT22;5086;50.830;7.102;2023-06-14T00:59:37;17.90;93.90
10095;DHT22;5086;50.830;7.102;2023-06-14T01:02:14;17.90;95.50
10095;DHT22;5086;50.830;7.102;2023-06-14T01:04:44;17.90;95.80
10095;DHT22;5086;50.830;7.102;2023-06-14T01:07:18;17.90;95.40
10095;DHT22;5086;50.830;7.102;2023-06-14T01:10:01;17.80;95.40
10095;DHT22;5086;50.830;7.102;2023-06-14T01:12:35;17.70;96.10
10095;DHT22;5086;50.830;7.102;2023-06-14T01:15:18;17.70;96.80
10095;DHT22;5086;50.830;7.102;2023-06-14T01:17:53;17.50;97.40
10095;DHT22;5086;50.830;7.102;2023-06-14T01:20:41;17.50;99.90
10095;DHT22;5086;50.830;7.102;2023-06-14T01:23:12;17.30;99.90
10095;DHT22;5086;50.830;7.102;2023-06-14T01:25:40;17.20;99.90
10095;DHT22;5086;50.830;7.102;2023-06-14T01:28:10;17.20;99.90
10095;DHT22;5086;50.830;7.102;2023-06-14T01:30:40;17.20;99.90
10095;DHT22;5086;50.830;7.102;2023-06-14T01:33:11;17.10;99.90
10095;DHT22;5086;50.830;7.102;2023-06-14T01:35:40;17.00;99.90
10095;DHT22;5086;50.830;7.102;2023-06-14T01:38:15;17.00;99.90
10095;DHT22;5086;50.830;7.102;2023-06-14T01:40:45;16.90;99.90
10095;DHT22;5086;50.830;7.102;2023-06-14T01:43:26;16.70;99.90
10095;DHT22;5086;50.830;7.102;2023-06-14T01:45:54;16.70;99.90
10095;DHT22;5086;50.830;7.102;2023-06-14T01:48:22;16.70;99.90
10095;DHT22;5086;50.830;7.102;2023-06-14T01:50:50;16.70;99.90
10095;DHT22;5086;50.830;7.102;2023-06-14T01:53:19;16.30;99.90
10095;DHT22;5086;50.830;7.102;2023-06-14T01:55:46;16.30;99.90
10095;DHT22;5086;50.830;7.102;2023-06-14T01:58:14;16.30;99.90
10095;DHT22;5086;50.830;7.102;2023-06-14T02:00:41;16.40;99.90
10095;DHT22;5086;50.830;7.102;2023-06-14T02:03:09;16.50;99.90
10095;DHT22;5086;50.830;7.102;2023-06-14T02:05:37;16.50;99.90
10095;DHT22;5086;50.830;7.102;2023-06-14T02:08:07;16.50;99.90
10095;DHT22;5086;50.830;7.102;2023-06-14T02:10:38;16.50;99.90
10095;DHT22;5086;50.830;7.102;2023-06-14T02:13:06;16.50;99.90
10095;DHT22;5086;50.830;7.102;2023-06-14T02:15:34;16.50;99.90
10095;DHT22;5086;50.830;7.102;2023-06-14T02:18:10;16.40;99.90
10095;DHT22;5086;50.830;7.102;2023-06-14T02:20:37;16.40;99.90
10095;DHT22;5086;50.830;7.102;2023-06-14T02:23:04;16.40;99.90
10095;DHT22;5086;50.830;7.102;2023-06-14T02:25:33;16.50;99.90
10095;DHT22;5086;50.830;7.102;2023-06-14T02:28:02;16.50;99.90
10095;DHT22;5086;50.830;7.102;2023-06-14T02:30:29;16.50;99.90
10095;DHT22;5086;50.830;7.102;2023-06-14T02:32:57;16.40;99.90
10095;DHT22;5086;50.830;7.102;2023-06-14T02:35:24;16.30;99.90
10095;DHT22;5086;50.830;7.102;2023-06-14T02:37:53;16.40;99.90
10095;DHT22;5086;50.830;7.102;2023-06-14T02:40:20;16.40;99.90
10095;DHT22;5086;50.830;7.102;2023-06-14T02:42:49;16.40;99.90
10095;DHT22;5086;50.830;7.102;2023-06-14T02:45:19;16.30;99.90
10095;DHT22;5086;50.830;7.102;2023-06-14T02:47:46;16.30;99.90
10095;DHT22;5086;50.830;7.102;2023-06-14T02:50:14;16.20;99.90
10095;DHT22;5086;50.830;7.102;2023-06-14T02:52:41;16.20;99.90
10095;DHT22;5086;50.830;7.102;2023-06-14T02:55:13;16.20;99.90
10095;DHT22;5086;50.830;7.102;2023-06-14T02:57:40;16.20;99.90
10095;DHT22;5086;50.830;7.102;2023-06-14T03:00:09;16.30;99.90
10095;DHT22;5086;50.830;7.102;2023-06-14T03:02:43;16.10;99.90
10095;DHT22;5086;50.830;7.102;2023-06-14T03:05:10;16.10;99.90
10095;DHT22;5086;50.830;7.102;2023-06-14T03:07:39;16.10;99.90
10095;DHT22;5086;50.830;7.102;2023-06-14T03:10:10;16.10;99.90
10095;DHT22;5086;50.830;7.102;2023-06-14T03:12:38;15.90;99.90
10095;DHT22;5086;50.830;7.102;2023-06-14T03:15:07;15.80;99.90
10095;DHT22;5086;50.830;7.102;2023-06-14T03:17:34;15.90;99.90
10095;DHT22;5086;50.830;7.102;2023-06-14T03:20:11;15.90;99.90
10095;DHT22;5086;50.830;7.102;2023-06-14T03:22:38;15.90;99.90
10095;DHT22;5086;50.830;7.102;2023-06-14T03:25:07;15.80;99.90
10095;DHT22;5086;50.830;7.102;2023-06-14T03:27:34;15.90;99.90
10095;DHT22;5086;50.830;7.102;2023-06-14T03:30:04;15.90;99.90
10095;DHT22;5086;50.830;7.102;2023-06-14T03:32:32;15.70;99.90
10095;DHT22;5086;50.830;7.102;2023-06-14T03:35:00;15.80;99.90
10095;DHT22;5086;50.830;7.102;2023-06-14T03:37:30;15.80;99.90
10095;DHT22;5086;50.830;7.102;2023-06-14T03:39:57;15.90;99.90
10095;DHT22;5086;50.830;7.102;2023-06-14T03:42:24;15.90;99.90
10095;DHT22;5086;50.830;7.102;2023-06-14T03:44:53;15.90;99.90
10095;DHT22;5086;50.830;7.102;2023-06-14T03:47:21;15.90;99.90
10095;DHT22;5086;50.830;7.102;2023-06-14T03:49:48;16.00;99.90
10095;DHT22;5086;50.830;7.102;2023-06-14T03:52:18;15.90;99.90
10095;DHT22;5086;50.830;7.102;2023-06-14T03:54:49;16.10;99.90
10095;DHT22;5086;50.830;7.102;2023-06-14T03:57:17;16.30;99.90
10095;DHT22;5086;50.830;7.102;2023-06-14T03:59:44;16.40;99.90
10095;DHT22;5086;50.830;7.102;2023-06-14T04:02:11;16.80;99.90
10095;DHT22;5086;50.830;7.102;2023-06-14T04:04:42;16.90;99.90
10095;DHT22;5086;50.830;7.102;2023-06-14T04:07:23;17.00;99.90
10095;DHT22;5086;50.830;7.102;2023-06-14T04:09:52;17.00;99.90
10095;DHT22;5086;50.830;7.102;2023-06-14T04:12:21;17.10;99.90
10095;DHT22;5086;50.830;7.102;2023-06-14T04:14:50;17.20;99.90
10095;DHT22;5086;50.830;7.102;2023-06-14T04:17:31;17.00;99.90
10095;DHT22;5086;50.830;7.102;2023-06-14T04:19:59;17.00;99.90
10095;DHT22;5086;50.830;7.102;2023-06-14T04:22:26;17.00;99.90
10095;DHT22;5086;50.830;7.102;2023-06-14T04:24:56;17.00;99.90
10095;DHT22;5086;50.830;7.102;2023-06-14T04:27:26;16.90;99.90
10095;DHT22;5086;50.830;7.102;2023-06-14T04:29:54;16.90;99.90
10095;DHT22;5086;50.830;7.102;2023-06-14T04:32:23;17.00;99.90
10095;DHT22;5086;50.830;7.102;2023-06-14T04:34:55;17.00;99.90
10095;DHT22;5086;50.830;7.102;2023-06-14T04:37:23;17.10;99.90
10095;DHT22;5086;50.830;7.102;2023-06-14T04:39:51;17.20;99.90
10095;DHT22;5086;50.830;7.102;2023-06-14T04:42:35;17.30;99.90
10095;DHT22;5086;50.830;7.102;2023-06-14T04:45:04;17.30;99.90
10095;DHT22;5086;50.830;7.102;2023-06-14T04:47:32;17.40;99.90
10095;DHT22;5086;50.830;7.102;2023-06-14T04:50:00;17.50;99.90
10095;DHT22;5086;50.830;7.102;2023-06-14T04:52:28;17.50;99.90
10095;DHT22;5086;50.830;7.102;2023-06-14T04:55:09;17.70;99.90
10095;DHT22;5086;50.830;7.102;2023-06-14T04:57:38;17.70;99.90
10095;DHT22;5086;50.830;7.102;2023-06-14T05:00:09;17.80;99.90
10095;DHT22;5086;50.830;7.102;2023-06-14T05:02:39;17.80;99.90
10095;DHT22;5086;50.830;7.102;2023-06-14T05:05:07;18.10;99.90
10095;DHT22;5086;50.830;7.102;2023-06-14T05:07:35;18.40;99.90
10095;DHT22;5086;50.830;7.102;2023-06-14T05:10:03;18.90;99.90
10095;DHT22;5086;50.830;7.102;2023-06-14T05:12:32;19.30;99.90
10095;DHT22;5086;50.830;7.102;2023-06-14T05:54:10;21.70;95.40
10095;DHT22;5086;50.830;7.102;2023-06-14T05:57:22;21.80;95.00
10095;DHT22;5086;50.830;7.102;2023-06-14T05:59:49;22.10;93.70
10095;DHT22;5086;50.830;7.102;2023-06-14T06:02:17;22.20;94.00
10095;DHT22;5086;50.830;7.102;2023-06-14T06:04:44;22.20;94.20
10095;DHT22;5086;50.830;7.102;2023-06-14T06:07:11;22.20;93.20
10095;DHT22;5086;50.830;7.102;2023-06-14T06:09:42;22.20;93.90
10095;DHT22;5086;50.830;7.102;2023-06-14T06:12:16;22.30;93.50
10095;DHT22;5086;50.830;7.102;2023-06-14T06:14:56;22.40;93.20
10095;DHT22;5086;50.830;7.102;2023-06-14T06:17:25;22.30;92.90
10095;DHT22;5086;50.830;7.102;2023-06-14T06:19:52;22.50;92.80
10095;DHT22;5086;50.830;7.102;2023-06-14T06:22:34;23.00;93.90
10095;DHT22;5086;50.830;7.102;2023-06-14T06:28:16;23.50;92.20
10095;DHT22;5086;50.830;7.102;2023-06-14T06:30:46;23.50;91.90
10095;DHT22;5086;50.830;7.102;2023-06-14T06:33:43;23.40;92.10
10095;DHT22;5086;50.830;7.102;2023-06-14T06:36:24;23.70;92.00
10095;DHT22;5086;50.830;7.102;2023-06-14T06:38:54;23.70;92.30
10095;DHT22;5086;50.830;7.102;2023-06-14T06:41:24;23.70;92.20
10095;DHT22;5086;50.830;7.102;2023-06-14T06:43:53;23.90;93.10
10095;DHT22;5086;50.830;7.102;2023-06-14T06:46:23;24.00;91.60
10095;DHT22;5086;50.830;7.102;2023-06-14T06:49:00;24.30;91.40
10095;DHT22;5086;50.830;7.102;2023-06-14T06:51:43;24.40;91.20
10095;DHT22;5086;50.830;7.102;2023-06-14T06:54:36;24.70;91.60
10095;DHT22;5086;50.830;7.102;2023-06-14T06:57:06;24.80;90.50
10095;DHT22;5086;50.830;7.102;2023-06-14T06:59:50;24.90;90.60
10095;DHT22;5086;50.830;7.102;2023-06-14T07:02:33;24.30;91.50
10095;DHT22;5086;50.830;7.102;2023-06-14T07:05:57;24.20;90.90
10095;DHT22;5086;50.830;7.102;2023-06-14T07:08:55;25.00;91.00
10095;DHT22;5086;50.830;7.102;2023-06-14T07:11:36;24.60;90.80
10095;DHT22;5086;50.830;7.102;2023-06-14T07:14:07;25.00;90.50
10095;DHT22;5086;50.830;7.102;2023-06-14T07:16:37;25.40;90.50
10095;DHT22;5086;50.830;7.102;2023-06-14T07:19:42;25.40;86.90
10095;DHT22;5086;50.830;7.102;2023-06-14T07:22:15;25.20;89.40
10095;DHT22;5086;50.830;7.102;2023-06-14T07:24:45;25.60;89.80
10095;DHT22;5086;50.830;7.102;2023-06-14T07:27:20;26.00;88.60
10095;DHT22;5086;50.830;7.102;2023-06-14T07:29:51;26.30;88.10
10095;DHT22;5086;50.830;7.102;2023-06-14T07:32:20;26.50;84.80
10095;DHT22;5086;50.830;7.102;2023-06-14T07:34:48;26.20;88.50
10095;DHT22;5086;50.830;7.102;2023-06-14T07:37:29;26.10;87.00
10095;DHT22;5086;50.830;7.102;2023-06-14T07:39:57;26.10;85.30
10095;DHT22;5086;50.830;7.102;2023-06-14T07:42:34;26.50;84.10
10095;DHT22;5086;50.830;7.102;2023-06-14T07:45:02;26.70;85.40
10095;DHT22;5086;50.830;7.102;2023-06-14T07:47:31;26.70;87.30
10095;DHT22;5086;50.830;7.102;2023-06-14T07:50:01;27.10;85.80
10095;DHT22;5086;50.830;7.102;2023-06-14T07:52:28;27.50;82.50
10095;DHT22;5086;50.830;7.102;2023-06-14T07:54:59;27.10;78.60
10095;DHT22;5086;50.830;7.102;2023-06-14T07:57:26;27.00;78.10
10095;DHT22;5086;50.830;7.102;2023-06-14T07:59:55;27.00;78.20
10095;DHT22;5086;50.830;7.102;2023-06-14T08:02:22;26.80;79.90
10095;DHT22;5086;50.830;7.102;2023-06-14T08:04:51;27.50;78.20
10095;DHT22;5086;50.830;7.102;2023-06-14T08:07:31;27.70;76.80
10095;DHT22;5086;50.830;7.102;2023-06-14T08:09:58;27.60;76.40
10095;DHT22;5086;50.830;7.102;2023-06-14T08:12:26;27.60;77.50
10095;DHT22;5086;50.830;7.102;2023-06-14T08:14:55;28.10;76.70
10095;DHT22;5086;50.830;7.102;2023-06-14T08:17:22;27.90;79.00
10095;DHT22;5086;50.830;7.102;2023-06-14T08:19:51;27.80;77.10
10095;DHT22;5086;50.830;7.102;2023-06-14T08:22:20;27.00;76.60
10095;DHT22;5086;50.830;7.102;2023-06-14T08:24:47;26.50;75.50
10095;DHT22;5086;50.830;7.102;2023-06-14T08:27:14;26.00;73.70
10095;DHT22;5086;50.830;7.102;2023-06-14T08:29:45;25.60;72.10
10095;DHT22;5086;50.830;7.102;2023-06-14T08:32:15;25.70;76.60
10095;DHT22;5086;50.830;7.102;2023-06-14T08:34:46;25.50;74.20
10095;DHT22;5086;50.830;7.102;2023-06-14T08:37:14;25.70;72.50
10095;DHT22;5086;50.830;7.102;2023-06-14T08:39:41;25.80;77.70
10095;DHT22;5086;50.830;7.102;2023-06-14T08:42:09;26.10;72.60
10095;DHT22;5086;50.830;7.102;2023-06-14T08:44:36;26.00;74.20
10095;DHT22;5086;50.830;7.102;2023-06-14T08:47:06;25.90;71.40
10095;DHT22;5086;50.830;7.102;2023-06-14T08:49:36;25.80;74.20
10095;DHT22;5086;50.830;7.102;2023-06-14T08:52:05;25.70;73.50
10095;DHT22;5086;50.830;7.102;2023-06-14T08:54:37;26.00;74.10
10095;DHT22;5086;50.830;7.102;2023-06-14T08:57:12;26.00;71.70
10095;DHT22;5086;50.830;7.102;2023-06-14T08:59:46;25.60;77.10
10095;DHT22;5086;50.830;7.102;2023-06-14T09:02:14;25.10;74.10
10095;DHT22;5086;50.830;7.102;2023-06-14T09:04:43;25.40;72.90
10095;DHT22;5086;50.830;7.102;2023-06-14T09:07:10;25.40;71.90
10095;DHT22;5086;50.830;7.102;2023-06-14T09:09:41;25.50;73.60
10095;DHT22;5086;50.830;7.102;2023-06-14T09:12:11;25.90;71.50
10095;DHT22;5086;50.830;7.102;2023-06-14T09:14:48;26.10;72.80
10095;DHT22;5086;50.830;7.102;2023-06-14T09:17:15;25.90;75.80
10095;DHT22;5086;50.830;7.102;2023-06-14T09:19:45;26.10;74.30
10095;DHT22;5086;50.830;7.102;2023-06-14T09:22:20;26.30;75.10
10095;DHT22;5086;50.830;7.102;2023-06-14T09:24:55;25.60;70.30
10095;DHT22;5086;50.830;7.102;2023-06-14T09:27:22;25.80;70.90
10095;DHT22;5086;50.830;7.102;2023-06-14T09:29:52;25.80;73.20
10095;DHT22;5086;50.830;7.102;2023-06-14T09:32:20;26.20;72.70
10095;DHT22;5086;50.830;7.102;2023-06-14T09:34:48;26.10;72.30
10095;DHT22;5086;50.830;7.102;2023-06-14T09:37:27;25.80;69.40
10095;DHT22;5086;50.830;7.102;2023-06-14T09:39:56;25.20;69.00
10095;DHT22;5086;50.830;7.102;2023-06-14T09:42:24;25.30;74.90
10095;DHT22;5086;50.830;7.102;2023-06-14T09:44:53;25.50;77.40
10095;DHT22;5086;50.830;7.102;2023-06-14T09:47:25;25.50;71.80
10095;DHT22;5086;50.830;7.102;2023-06-14T09:50:01;24.90;71.30
10095;DHT22;5086;50.830;7.102;2023-06-14T09:52:28;24.80;68.40
10095;DHT22;5086;50.830;7.102;2023-06-14T09:55:02;24.80;70.60
10095;DHT22;5086;50.830;7.102;2023-06-14T09:57:34;25.20;71.00
10095;DHT22;5086;50.830;7.102;2023-06-14T10:00:02;25.60;72.60
10095;DHT22;5086;50.830;7.102;2023-06-14T10:02:37;26.10;69.50
10095;DHT22;5086;50.830;7.102;2023-06-14T10:05:07;26.10;71.80
10095;DHT22;5086;50.830;7.102;2023-06-14T10:07:38;26.20;68.50
10095;DHT22;5086;50.830;7.102;2023-06-14T10:10:21;26.40;73.20
10095;DHT22;5086;50.830;7.102;2023-06-14T10:12:51;26.20;71.50
10095;DHT22;5086;50.830;7.102;2023-06-14T10:15:27;26.30;73.80
10095;DHT22;5086;50.830;7.102;2023-06-14T10:18:01;26.20;70.10
10095;DHT22;5086;50.830;7.102;2023-06-14T10:20:37;25.60;69.10
10095;DHT22;5086;50.830;7.102;2023-06-14T10:23:17;25.60;70.30
10095;DHT22;5086;50.830;7.102;2023-06-14T10:25:50;25.80;69.30
10095;DHT22;5086;50.830;7.102;2023-06-14T10:28:20;25.80;70.60
10095;DHT22;5086;50.830;7.102;2023-06-14T10:31:05;25.30;69.50
10095;DHT22;5086;50.830;7.102;2023-06-14T10:33:33;25.80;74.30
10095;DHT22;5086;50.830;7.102;2023-06-14T10:36:23;25.90;72.10
10095;DHT22;5086;50.830;7.102;2023-06-14T10:39:21;25.50;67.80
10095;DHT22;5086;50.830;7.102;2023-06-14T10:42:02;25.50;71.30
10095;DHT22;5086;50.830;7.102;2023-06-14T10:44:55;25.40;71.30
10095;DHT22;5086;50.830;7.102;2023-06-14T10:47:26;25.80;73.90
10095;DHT22;5086;50.830;7.102;2023-06-14T10:50:05;25.50;74.70
10095;DHT22;5086;50.830;7.102;2023-06-14T10:52:38;25.30;73.40
10095;DHT22;5086;50.830;7.102;2023-06-14T10:55:10;25.30;71.80
10095;DHT22;5086;50.830;7.102;2023-06-14T10:57:48;25.30;72.40
10095;DHT22;5086;50.830;7.102;2023-06-14T11:00:30;25.30;71.90
10095;DHT22;5086;50.830;7.102;2023-06-14T11:03:39;25.00;74.60
10095;DHT22;5086;50.830;7.102;2023-06-14T11:06:13;25.20;76.40
10095;DHT22;5086;50.830;7.102;2023-06-14T11:09:30;25.10;74.20
10095;DHT22;5086;50.830;7.102;2023-06-14T11:12:10;24.70;71.80
10095;DHT22;5086;50.830;7.102;2023-06-14T11:14:47;24.90;78.40
10095;DHT22;5086;50.830;7.102;2023-06-14T11:17:34;24.90;76.20
10095;DHT22;5086;50.830;7.102;2023-06-14T11:20:08;24.70;72.10
10095;DHT22;5086;50.830;7.102;2023-06-14T11:22:41;24.50;73.70
10095;DHT22;5086;50.830;7.102;2023-06-14T11:25:09;24.50;74.70
10095;DHT22;5086;50.830;7.102;2023-06-14T11:27:36;24.70;75.20
10095;DHT22;5086;50.830;7.102;2023-06-14T11:30:10;24.30;72.90
10095;DHT22;5086;50.830;7.102;2023-06-14T11:32:40;24.40;79.20
10095;DHT22;5086;50.830;7.102;2023-06-14T11:35:08;24.70;81.70
10095;DHT22;5086;50.830;7.102;2023-06-14T11:37:38;25.00;80.40
10095;DHT22;5086;50.830;7.102;2023-06-14T11:40:12;25.20;81.70
10095;DHT22;5086;50.830;7.102;2023-06-14T11:42:58;25.20;81.50
10095;DHT22;5086;50.830;7.102;2023-06-14T11:45:27;25.10;76.40
10095;DHT22;5086;50.830;7.102;2023-06-14T11:47:57;24.70;78.00
10095;DHT22;5086;50.830;7.102;2023-06-14T11:50:32;24.60;79.20
10095;DHT22;5086;50.830;7.102;2023-06-14T11:53:12;24.80;77.70
10095;DHT22;5086;50.830;7.102;2023-06-14T11:55:42;24.50;77.30
10095;DHT22;5086;50.830;7.102;2023-06-14T11:58:13;24.70;82.00
10095;DHT22;5086;50.830;7.102;2023-06-14T12:00:50;24.60;79.60
10095;DHT22;5086;50.830;7.102;2023-06-14T12:03:24;25.00;76.30
10095;DHT22;5086;50.830;7.102;2023-06-14T12:06:09;25.10;75.20
10095;DHT22;5086;50.830;7.102;2023-06-14T12:08:38;25.20;75.60
10095;DHT22;5086;50.830;7.102;2023-06-14T12:11:06;25.00;72.90
10095;DHT22;5086;50.830;7.102;2023-06-14T12:13:38;25.20;74.40
10095;DHT22;5086;50.830;7.102;2023-06-14T12:16:12;25.10;73.30
10095;DHT22;5086;50.830;7.102;2023-06-14T12:18:40;24.90;73.80
10095;DHT22;5086;50.830;7.102;2023-06-14T12:21:09;24.60;72.90
10095;DHT22;5086;50.830;7.102;2023-06-14T12:23:43;24.50;72.10
10095;DHT22;5086;50.830;7.102;2023-06-14T12:26:12;24.40;72.20
10095;DHT22;5086;50.830;7.102;2023-06-14T12:28:40;24.50;71.00
10095;DHT22;5086;50.830;7.102;2023-06-14T12:31:15;24.60;73.60
10095;DHT22;5086;50.830;7.102;2023-06-14T12:33:45;24.80;75.90
10095;DHT22;5086;50.830;7.102;2023-06-14T12:36:16;24.60;73.70
10095;DHT22;5086;50.830;7.102;2023-06-14T12:38:44;24.80;76.00
10095;DHT22;5086;50.830;7.102;2023-06-14T12:41:12;25.00;74.90
10095;DHT22;5086;50.830;7.102;2023-06-14T12:43:41;25.00;75.60
10095;DHT22;5086;50.830;7.102;2023-06-14T12:46:08;24.60;72.90
10095;DHT22;5086;50.830;7.102;2023-06-14T12:48:40;24.60;76.20
10095;DHT22;5086;50.830;7.102;2023-06-14T12:51:12;24.40;73.10
10095;DHT22;5086;50.830;7.102;2023-06-14T12:53:39;24.40;75.20
10095;DHT22;5086;50.830;7.102;2023-06-14T12:56:07;24.50;73.50
10095;DHT22;5086;50.830;7.102;2023-06-14T12:58:34;24.40;73.80
10095;DHT22;5086;50.830;7.102;2023-06-14T13:01:04;24.40;74.20
10095;DHT22;5086;50.830;7.102;2023-06-14T13:03:34;24.60;73.90
10095;DHT22;5086;50.830;7.102;2023-06-14T13:06:20;24.70;75.90
10095;DHT22;5086;50.830;7.102;2023-06-14T13:09:15;24.80;79.70
10095;DHT22;5086;50.830;7.102;2023-06-14T13:11:42;24.70;76.10
10095;DHT22;5086;50.830;7.102;2023-06-14T13:14:17;24.70;77.90
10095;DHT22;5086;50.830;7.102;2023-06-14T13:16:44;24.80;72.90
10095;DHT22;5086;50.830;7.102;2023-06-14T13:19:11;24.70;74.00
10095;DHT22;5086;50.830;7.102;2023-06-14T13:21:55;24.60;74.80
10095;DHT22;5086;50.830;7.102;2023-06-14T13:24:32;24.70;78.40
10095;DHT22;5086;50.830;7.102;2023-06-14T13:27:19;24.80;75.30
10095;DHT22;5086;50.830;7.102;2023-06-14T13:29:46;24.80;76.10
10095;DHT22;5086;50.830;7.102;2023-06-14T13:32:13;24.70;78.70
10095;DHT22;5086;50.830;7.102;2023-06-14T13:34:42;24.30;76.80
10095;DHT22;5086;50.830;7.102;2023-06-14T13:37:28;24.40;79.40
10095;DHT22;5086;50.830;7.102;2023-06-14T13:39:55;24.70;77.40
10095;DHT22;5086;50.830;7.102;2023-06-14T13:42:23;24.90;80.60
10095;DHT22;5086;50.830;7.102;2023-06-14T13:45:08;24.70;78.30
10095;DHT22;5086;50.830;7.102;2023-06-14T13:47:35;24.90;76.80
10095;DHT22;5086;50.830;7.102;2023-06-14T13:50:02;24.70;77.60
10095;DHT22;5086;50.830;7.102;2023-06-14T13:52:36;24.60;77.50
10095;DHT22;5086;50.830;7.102;2023-06-14T13:55:08;24.70;79.00
10095;DHT22;5086;50.830;7.102;2023-06-14T13:57:38;24.70;77.10
10095;DHT22;5086;50.830;7.102;2023-06-14T14:00:16;24.40;76.20
10095;DHT22;5086;50.830;7.102;2023-06-14T14:02:45;24.00;78.40
10095;DHT22;5086;50.830;7.102;2023-06-14T14:05:23;23.70;77.00
10095;DHT22;5086;50.830;7.102;2023-06-14T14:11:05;23.60;78.30
10095;DHT22;5086;50.830;7.102;2023-06-14T14:13:33;24.10;77.70
10095;DHT22;5086;50.830;7.102;2023-06-14T14:16:09;24.40;77.20
10095;DHT22;5086;50.830;7.102;2023-06-14T14:18:39;24.50;76.50
10095;DHT22;5086;50.830;7.102;2023-06-14T14:21:06;24.60;76.40
10095;DHT22;5086;50.830;7.102;2023-06-14T14:23:33;24.50;77.40
10095;DHT22;5086;50.830;7.102;2023-06-14T14:26:02;24.40;76.60
10095;DHT22;5086;50.830;7.102;2023-06-14T14:28:30;24.60;79.40
10095;DHT22;5086;50.830;7.102;2023-06-14T14:30:58;24.70;77.80
10095;DHT22;5086;50.830;7.102;2023-06-14T14:33:26;24.80;75.50
10095;DHT22;5086;50.830;7.102;2023-06-14T14:35:52;24.40;75.40
10095;DHT22;5086;50.830;7.102;2023-06-14T14:38:19;24.50;75.80
10095;DHT22;5086;50.830;7.102;2023-06-14T14:40:50;24.50;73.60
10095;DHT22;5086;50.830;7.102;2023-06-14T14:43:21;24.40;74.90
10095;DHT22;5086;50.830;7.102;2023-06-14T14:45:49;24.50;76.80
10095;DHT22;5086;50.830;7.102;2023-06-14T14:48:21;24.70;76.10
10095;DHT22;5086;50.830;7.102;2023-06-14T14:50:48;24.60;74.30
10095;DHT22;5086;50.830;7.102;2023-06-14T14:53:15;24.40;74.80
10095;DHT22;5086;50.830;7.102;2023-06-14T14:55:43;24.50;76.10
10095;DHT22;5086;50.830;7.102;2023-06-14T14:58:12;24.60;75.20
10095;DHT22;5086;50.830;7.102;2023-06-14T15:00:46;24.70;74.60
10095;DHT22;5086;50.830;7.102;2023-06-14T15:03:14;24.70;74.70
10095;DHT22;5086;50.830;7.102;2023-06-14T15:05:44;24.50;76.20
10095;DHT22;5086;50.830;7.102;2023-06-14T15:08:13;24.50;74.60
10095;DHT22;5086;50.830;7.102;2023-06-14T15:10:41;24.50;74.60
10095;DHT22;5086;50.830;7.102;2023-06-14T15:13:08;24.30;76.50
10095;DHT22;5086;50.830;7.102;2023-06-14T15:15:36;24.30;77.60
10095;DHT22;5086;50.830;7.102;2023-06-14T15:18:04;24.10;78.40
10095;DHT22;5086;50.830;7.102;2023-06-14T15:20:32;23.80;77.30
10095;DHT22;5086;50.830;7.102;2023-06-14T15:22:59;23.90;77.60
10095;DHT22;5086;50.830;7.102;2023-06-14T15:25:26;24.10;76.40
10095;DHT22;5086;50.830;7.102;2023-06-14T15:27:53;24.30;77.50
10095;DHT22;5086;50.830;7.102;2023-06-14T15:30:22;24.50;79.10
10095;DHT22;5086;50.830;7.102;2023-06-14T15:32:49;24.60;75.00
10095;DHT22;5086;50.830;7.102;2023-06-14T15:35:18;24.70;74.40
10095;DHT22;5086;50.830;7.102;2023-06-14T15:37:46;24.80;75.50
10095;DHT22;5086;50.830;7.102;2023-06-14T15:40:14;25.00;78.90
10095;DHT22;5086;50.830;7.102;2023-06-14T15:42:42;25.10;79.90
10095;DHT22;5086;50.830;7.102;2023-06-14T15:45:09;25.20;76.50
10095;DHT22;5086;50.830;7.102;2023-06-14T15:47:39;25.00;74.80
10095;DHT22;5086;50.830;7.102;2023-06-14T15:50:07;24.70;76.70
10095;DHT22;5086;50.830;7.102;2023-06-14T15:52:35;24.40;76.90
10095;DHT22;5086;50.830;7.102;2023-06-14T15:55:03;24.20;77.10
10095;DHT22;5086;50.830;7.102;2023-06-14T15:57:30;24.00;77.70
10095;DHT22;5086;50.830;7.102;2023-06-14T15:59:57;23.90;77.10
10095;DHT22;5086;50.830;7.102;2023-06-14T16:02:24;23.70;76.60
10095;DHT22;5086;50.830;7.102;2023-06-14T16:04:52;23.90;77.00
10095;DHT22;5086;50.830;7.102;2023-06-14T16:07:19;24.20;76.40
10095;DHT22;5086;50.830;7.102;2023-06-14T16:10:06;24.30;76.20
10095;DHT22;5086;50.830;7.102;2023-06-14T16:12:33;24.40;75.40
10095;DHT22;5086;50.830;7.102;2023-06-14T16:15:00;24.40;77.50
10095;DHT22;5086;50.830;7.102;2023-06-14T16:17:27;24.40;79.60
10095;DHT22;5086;50.830;7.102;2023-06-14T16:19:54;24.40;75.50
10095;DHT22;5086;50.830;7.102;2023-06-14T16:22:23;24.60;74.70
10095;DHT22;5086;50.830;7.102;2023-06-14T16:24:50;24.70;73.20
10095;DHT22;5086;50.830;7.102;2023-06-14T16:27:19;24.60;73.30
10095;DHT22;5086;50.830;7.102;2023-06-14T16:29:48;24.50;73.50
10095;DHT22;5086;50.830;7.102;2023-06-14T16:32:22;24.50;75.40
10095;DHT22;5086;50.830;7.102;2023-06-14T16:34:50;24.50;73.90
10095;DHT22;5086;50.830;7.102;2023-06-14T16:37:34;24.40;73.90
10095;DHT22;5086;50.830;7.102;2023-06-14T16:40:01;24.50;74.60
10095;DHT22;5086;50.830;7.102;2023-06-14T16:42:33;24.70;73.50
10095;DHT22;5086;50.830;7.102;2023-06-14T16:45:01;25.00;75.30
10095;DHT22;5086;50.830;7.102;2023-06-14T16:47:28;25.00;73.30
10095;DHT22;5086;50.830;7.102;2023-06-14T16:49:55;25.00;73.30
10095;DHT22;5086;50.830;7.102;2023-06-14T16:52:23;24.70;73.70
10095;DHT22;5086;50.830;7.102;2023-06-14T16:54:52;24.50;72.90
10095;DHT22;5086;50.830;7.102;2023-06-14T16:57:21;24.40;72.70
10095;DHT22;5086;50.830;7.102;2023-06-14T16:59:49;24.20;72.80
10095;DHT22;5086;50.830;7.102;2023-06-14T17:02:20;24.10;72.80